Wetterdaten: Montag, 02.05.2011
Datum Zeit Temp. A. Feuchte A. Luftdruck Regen Wind Richtung Richtung Sonnenschein UV Solar Windben
02.05.2011 00:00 7,9 C 66 % 1012,4 hPa 0,0 mm 0,0 km/h (0 Bft) N 360 0 min 0 UV-I 0 W/m 4,8 km/h (1 Bft)
02.05.2011 00:10 7,6 C 66 % 1012,4 hPa 0,0 mm 0,0 km/h (0 Bft) N 360 0 min 0 UV-I 0 W/m 3,2 km/h (1 Bft)
02.05.2011 00:20 7,4 C 67 % 1012,4 hPa 0,0 mm 0,0 km/h (0 Bft) N 360 0 min 0 UV-I 0 W/m 3,2 km/h (1 Bft)
02.05.2011 00:30 7,2 C 68 % 1012,3 hPa 0,0 mm 0,0 km/h (0 Bft) N 360 0 min 0 UV-I 0 W/m 1,6 km/h (1 Bft)
02.05.2011 00:40 6,9 C 68 % 1012,3 hPa 0,0 mm 0,0 km/h (0 Bft) N 360 0 min 0 UV-I 0 W/m 1,6 km/h (1 Bft)
02.05.2011 00:50 6,7 C 69 % 1012,3 hPa 0,0 mm 0,0 km/h (0 Bft) N 360 0 min 0 UV-I 0 W/m 1,6 km/h (1 Bft)
02.05.2011 01:00 6,6 C 70 % 1012,3 hPa 0,0 mm 0,0 km/h (0 Bft) N 360 0 min 0 UV-I 0 W/m 1,6 km/h (1 Bft)
02.05.2011 01:10 6,5 C 70 % 1012,3 hPa 0,0 mm 0,0 km/h (0 Bft) N 0 0 min 0 UV-I 0 W/m 0,0 km/h (0 Bft)
02.05.2011 01:20 6,3 C 70 % 1012,2 hPa 0,0 mm 0,0 km/h (0 Bft) N 360 0 min 0 UV-I 0 W/m 3,2 km/h (1 Bft)
02.05.2011 01:30 6,3 C 70 % 1012,2 hPa 0,0 mm 0,0 km/h (0 Bft) N 360 0 min 0 UV-I 0 W/m 3,2 km/h (1 Bft)
02.05.2011 01:40 6,3 C 70 % 1012,1 hPa 0,0 mm 0,0 km/h (0 Bft) N-NO 22 0 min 0 UV-I 0 W/m 3,2 km/h (1 Bft)
02.05.2011 01:50 6,3 C 70 % 1012,1 hPa 0,0 mm 0,0 km/h (0 Bft) N-NO 22 0 min 0 UV-I 0 W/m 1,6 km/h (1 Bft)
02.05.2011 02:00 6,3 C 70 % 1012,0 hPa 0,0 mm 0,0 km/h (0 Bft) N-NO 22 0 min 0 UV-I 0 W/m 3,2 km/h (1 Bft)
02.05.2011 02:10 6,3 C 70 % 1012,0 hPa 0,0 mm 0,0 km/h (0 Bft) N-NO 22 0 min 0 UV-I 0 W/m 4,8 km/h (1 Bft)
02.05.2011 02:20 6,3 C 70 % 1011,9 hPa 0,0 mm 0,0 km/h (0 Bft) O-NO 67 0 min 0 UV-I 0 W/m 3,2 km/h (1 Bft)
02.05.2011 02:30 6,3 C 69 % 1011,9 hPa 0,0 mm 0,0 km/h (0 Bft) NO 45 0 min 0 UV-I 0 W/m 3,2 km/h (1 Bft)
02.05.2011 02:40 6,3 C 68 % 1011,8 hPa 0,0 mm 0,0 km/h (0 Bft) NO 45 0 min 0 UV-I 0 W/m 3,2 km/h (1 Bft)
02.05.2011 02:50 6,3 C 69 % 1011,8 hPa 0,0 mm 0,0 km/h (0 Bft) NO 45 0 min 0 UV-I 0 W/m 4,8 km/h (1 Bft)
02.05.2011 03:00 6,3 C 69 % 1011,8 hPa 0,0 mm 0,0 km/h (0 Bft) O-NO 67 0 min 0 UV-I 0 W/m 11,3 km/h (2 Bft)
02.05.2011 03:10 6,6 C 69 % 1011,8 hPa 0,0 mm 1,6 km/h (1 Bft) O-SO 112 0 min 0 UV-I 0 W/m 11,3 km/h (2 Bft)
02.05.2011 03:20 6,8 C 69 % 1011,8 hPa 0,0 mm 0,0 km/h (0 Bft) O-NO 67 0 min 0 UV-I 0 W/m 1,6 km/h (1 Bft)
02.05.2011 03:30 7,0 C 68 % 1011,6 hPa 0,0 mm 1,6 km/h (1 Bft) O-NO 67 0 min 0 UV-I 0 W/m 6,4 km/h (2 Bft)
02.05.2011 03:40 7,3 C 67 % 1011,5 hPa 0,0 mm 1,6 km/h (1 Bft) O-NO 67 0 min 0 UV-I 0 W/m 6,4 km/h (2 Bft)
02.05.2011 03:50 7,4 C 67 % 1011,4 hPa 0,0 mm 1,6 km/h (1 Bft) O-SO 112 0 min 0 UV-I 0 W/m 6,4 km/h (2 Bft)
02.05.2011 04:00 7,5 C 67 % 1011,4 hPa 0,0 mm 0,0 km/h (0 Bft) O 90 0 min 0 UV-I 0 W/m 4,8 km/h (1 Bft)
02.05.2011 04:10 7,6 C 68 % 1011,4 hPa 0,0 mm 0,0 km/h (0 Bft) O 90 0 min 0 UV-I 0 W/m 3,2 km/h (1 Bft)
02.05.2011 04:20 7,4 C 69 % 1011,4 hPa 0,0 mm 0,0 km/h (0 Bft) O 90 0 min 0 UV-I 0 W/m 6,4 km/h (2 Bft)
02.05.2011 04:30 7,3 C 69 % 1011,5 hPa 0,0 mm 1,6 km/h (1 Bft) N-NO 22 0 min 0 UV-I 0 W/m 6,4 km/h (2 Bft)
02.05.2011 04:40 7,4 C 70 % 1011,5 hPa 0,0 mm 1,6 km/h (1 Bft) N 360 0 min 0 UV-I 0 W/m 6,4 km/h (2 Bft)
02.05.2011 04:50 7,3 C 70 % 1011,5 hPa 0,0 mm 0,0 km/h (0 Bft) O 90 0 min 0 UV-I 0 W/m 3,2 km/h (1 Bft)
02.05.2011 05:00 7,1 C 71 % 1011,5 hPa 0,0 mm 0,0 km/h (0 Bft) NO 45 0 min 0 UV-I 0 W/m 4,8 km/h (1 Bft)
02.05.2011 05:10 7,1 C 71 % 1011,6 hPa 0,0 mm 0,0 km/h (0 Bft) NO 45 0 min 0 UV-I 0 W/m 4,8 km/h (1 Bft)
02.05.2011 05:20 7,1 C 71 % 1011,6 hPa 0,0 mm 0,0 km/h (0 Bft) NO 45 0 min 0 UV-I 0 W/m 3,2 km/h (1 Bft)
02.05.2011 05:30 7,0 C 72 % 1011,5 hPa 0,0 mm 0,0 km/h (0 Bft) NO 45 0 min 0 UV-I 0 W/m 3,2 km/h (1 Bft)
02.05.2011 05:40 6,8 C 72 % 1011,6 hPa 0,0 mm 0,0 km/h (0 Bft) NO 45 0 min 0 UV-I 0 W/m 3,2 km/h (1 Bft)
02.05.2011 05:50 6,7 C 73 % 1011,5 hPa 0,0 mm 0,0 km/h (0 Bft) N-NO 22 0 min 0 UV-I 0 W/m 4,8 km/h (1 Bft)
02.05.2011 06:00 6,6 C 73 % 1011,6 hPa 0,0 mm 0,0 km/h (0 Bft) N-NO 22 0 min 0 UV-I 0 W/m 3,2 km/h (1 Bft)
02.05.2011 06:10 6,3 C 74 % 1011,6 hPa 0,0 mm 0,0 km/h (0 Bft) N-NO 22 0 min 0 UV-I 9 W/m 3,2 km/h (1 Bft)
02.05.2011 06:20 6,1 C 75 % 1011,6 hPa 0,0 mm 0,0 km/h (0 Bft) NO 45 0 min 0 UV-I 14 W/m 6,4 km/h (2 Bft)
02.05.2011 06:30 6,1 C 74 % 1011,6 hPa 0,0 mm 0,0 km/h (0 Bft) NO 45 0 min 0 UV-I 19 W/m 6,4 km/h (2 Bft)
02.05.2011 06:40 6,0 C 76 % 1011,8 hPa 0,0 mm 0,0 km/h (0 Bft) NO 45 0 min 0 UV-I 25 W/m 8,0 km/h (2 Bft)
02.05.2011 06:50 6,0 C 76 % 1011,8 hPa 0,0 mm 1,6 km/h (1 Bft) O-NO 67 0 min 0 UV-I 42 W/m 6,4 km/h (2 Bft)
02.05.2011 07:00 6,2 C 75 % 1011,8 hPa 0,0 mm 1,6 km/h (1 Bft) O 90 0 min 0 UV-I 51 W/m 9,7 km/h (2 Bft)
02.05.2011 07:10 6,4 C 74 % 1011,9 hPa 0,0 mm 3,2 km/h (1 Bft) N-NO 22 0 min 0 UV-I 74 W/m 8,0 km/h (2 Bft)
02.05.2011 07:20 6,6 C 74 % 1012,0 hPa 0,0 mm 3,2 km/h (1 Bft) O-NO 67 0 min 0 UV-I 84 W/m 9,7 km/h (2 Bft)
02.05.2011 07:30 6,8 C 74 % 1012,0 hPa 0,0 mm 1,6 km/h (1 Bft) O-NO 67 10 min 1 UV-I 158 W/m 8,0 km/h (2 Bft)
02.05.2011 07:40 6,9 C 73 % 1012,0 hPa 0,0 mm 1,6 km/h (1 Bft) O-NO 67 0 min 1 UV-I 105 W/m 9,7 km/h (2 Bft)
02.05.2011 07:50 6,9 C 73 % 1012,0 hPa 0,0 mm 4,8 km/h (1 Bft) O 90 0 min 1 UV-I 118 W/m 9,7 km/h (2 Bft)
02.05.2011 08:00 7,1 C 72 % 1012,1 hPa 0,0 mm 4,8 km/h (1 Bft) O-NO 67 0 min 1 UV-I 125 W/m 14,5 km/h (3 Bft)
02.05.2011 08:10 7,2 C 72 % 1012,0 hPa 0,0 mm 3,2 km/h (1 Bft) O 90 0 min 1 UV-I 148 W/m 9,7 km/h (2 Bft)
02.05.2011 08:20 7,3 C 72 % 1012,2 hPa 0,0 mm 3,2 km/h (1 Bft) O 90 10 min 1 UV-I 225 W/m 9,7 km/h (2 Bft)
02.05.2011 08:30 7,7 C 71 % 1012,2 hPa 0,0 mm 3,2 km/h (1 Bft) O 90 10 min 1 UV-I 278 W/m 9,7 km/h (2 Bft)
02.05.2011 08:40 7,9 C 69 % 1012,2 hPa 0,0 mm 1,6 km/h (1 Bft) N-NO 22 10 min 1 UV-I 308 W/m 20,9 km/h (4 Bft)
02.05.2011 08:50 8,2 C 67 % 1012,2 hPa 0,0 mm 4,8 km/h (1 Bft) O 90 10 min 2 UV-I 417 W/m 17,7 km/h (3 Bft)
02.05.2011 09:00 8,8 C 67 % 1012,0 hPa 0,0 mm 4,8 km/h (1 Bft) O-NO 67 10 min 2 UV-I 485 W/m 14,5 km/h (3 Bft)
02.05.2011 09:10 9,4 C 64 % 1012,2 hPa 0,0 mm 3,2 km/h (1 Bft) O-NO 67 10 min 2 UV-I 489 W/m 11,3 km/h (2 Bft)
02.05.2011 09:20 8,9 C 65 % 1012,2 hPa 0,0 mm 4,8 km/h (1 Bft) O-NO 67 10 min 2 UV-I 387 W/m 11,3 km/h (2 Bft)
02.05.2011 09:30 8,6 C 68 % 1012,2 hPa 0,0 mm 3,2 km/h (1 Bft) O-NO 67 10 min 2 UV-I 346 W/m 14,5 km/h (3 Bft)
02.05.2011 09:40 9,0 C 65 % 1012,3 hPa 0,0 mm 6,4 km/h (2 Bft) O-NO 67 10 min 2 UV-I 517 W/m 17,7 km/h (3 Bft)
02.05.2011 09:50 9,6 C 64 % 1012,3 hPa 0,0 mm 6,4 km/h (2 Bft) O-NO 67 10 min 3 UV-I 541 W/m 19,3 km/h (3 Bft)
02.05.2011 10:00 9,7 C 64 % 1012,4 hPa 0,0 mm 6,4 km/h (2 Bft) O 90 10 min 3 UV-I 564 W/m 17,7 km/h (3 Bft)
02.05.2011 10:10 9,8 C 64 % 1012,4 hPa 0,0 mm 4,8 km/h (1 Bft) O-NO 67 10 min 3 UV-I 585 W/m 14,5 km/h (3 Bft)
02.05.2011 10:20 10,4 C 62 % 1012,3 hPa 0,0 mm 8,0 km/h (2 Bft) O 90 10 min 3 UV-I 613 W/m 19,3 km/h (3 Bft)
02.05.2011 10:30 10,8 C 60 % 1012,3 hPa 0,0 mm 6,4 km/h (2 Bft) O-SO 112 10 min 3 UV-I 643 W/m 16,1 km/h (3 Bft)
02.05.2011 10:40 11,2 C 59 % 1012,3 hPa 0,0 mm 6,4 km/h (2 Bft) O 90 10 min 4 UV-I 680 W/m 19,3 km/h (3 Bft)
02.05.2011 10:50 11,2 C 59 % 1012,2 hPa 0,0 mm 3,2 km/h (1 Bft) O 90 10 min 4 UV-I 707 W/m 11,3 km/h (2 Bft)
02.05.2011 11:00 11,7 C 57 % 1012,2 hPa 0,0 mm 4,8 km/h (1 Bft) O 90 10 min 4 UV-I 747 W/m 17,7 km/h (3 Bft)
02.05.2011 11:10 12,0 C 59 % 1012,2 hPa 0,0 mm 4,8 km/h (1 Bft) O-NO 67 10 min 4 UV-I 770 W/m 14,5 km/h (3 Bft)
02.05.2011 11:20 12,2 C 55 % 1012,2 hPa 0,0 mm 4,8 km/h (1 Bft) O-NO 67 10 min 5 UV-I 835 W/m 19,3 km/h (3 Bft)
02.05.2011 11:30 12,1 C 55 % 1012,0 hPa 0,0 mm 6,4 km/h (2 Bft) O-NO 67 10 min 5 UV-I 886 W/m 20,9 km/h (4 Bft)
02.05.2011 11:40 12,3 C 55 % 1011,9 hPa 0,0 mm 4,8 km/h (1 Bft) O 90 10 min 5 UV-I 935 W/m 14,5 km/h (3 Bft)
02.05.2011 11:50 11,4 C 57 % 1012,1 hPa 0,0 mm 8,0 km/h (2 Bft) O-NO 67 10 min 5 UV-I 861 W/m 22,5 km/h (4 Bft)
02.05.2011 12:00 11,7 C 55 % 1012,0 hPa 0,0 mm 8,0 km/h (2 Bft) O-NO 67 10 min 5 UV-I 865 W/m 24,1 km/h (4 Bft)
02.05.2011 12:10 12,6 C 53 % 1011,9 hPa 0,0 mm 9,7 km/h (2 Bft) O 90 10 min 5 UV-I 923 W/m 19,3 km/h (3 Bft)
02.05.2011 12:20 12,1 C 55 % 1012,1 hPa 0,0 mm 8,0 km/h (2 Bft) O-NO 67 0 min 5 UV-I 306 W/m 20,9 km/h (4 Bft)
02.05.2011 12:30 11,3 C 58 % 1012,0 hPa 0,0 mm 8,0 km/h (2 Bft) O-NO 67 10 min 5 UV-I 889 W/m 24,1 km/h (4 Bft)
02.05.2011 12:40 12,2 C 53 % 1012,0 hPa 0,0 mm 9,7 km/h (2 Bft) O 90 10 min 6 UV-I 956 W/m 29,0 km/h (5 Bft)
02.05.2011 12:50 13,3 C 52 % 1011,8 hPa 0,0 mm 9,7 km/h (2 Bft) O 90 10 min 6 UV-I 951 W/m 29,0 km/h (5 Bft)
02.05.2011 13:00 13,7 C 51 % 1011,9 hPa 0,0 mm 11,3 km/h (2 Bft) O 90 10 min 6 UV-I 974 W/m 25,7 km/h (4 Bft)
02.05.2011 13:10 13,4 C 51 % 1012,0 hPa 0,0 mm 8,0 km/h (2 Bft) O-NO 67 10 min 6 UV-I 930 W/m 24,1 km/h (4 Bft)
02.05.2011 13:20 13,3 C 53 % 1011,6 hPa 0,0 mm 8,0 km/h (2 Bft) O 90 10 min 6 UV-I 891 W/m 19,3 km/h (3 Bft)
02.05.2011 13:30 12,4 C 53 % 1011,6 hPa 0,0 mm 9,7 km/h (2 Bft) O 90 10 min 6 UV-I 1013 W/m 25,7 km/h (4 Bft)
02.05.2011 13:40 12,3 C 56 % 1011,6 hPa 0,0 mm 8,0 km/h (2 Bft) O-NO 67 10 min 5 UV-I 918 W/m 22,5 km/h (4 Bft)
02.05.2011 13:50 12,5 C 53 % 1011,6 hPa 0,0 mm 9,7 km/h (2 Bft) O 90 10 min 6 UV-I 932 W/m 27,4 km/h (4 Bft)
02.05.2011 14:00 13,4 C 51 % 1011,4 hPa 0,0 mm 9,7 km/h (2 Bft) O 90 10 min 6 UV-I 928 W/m 24,1 km/h (4 Bft)
02.05.2011 14:10 13,7 C 50 % 1011,4 hPa 0,0 mm 8,0 km/h (2 Bft) O-NO 67 10 min 5 UV-I 970 W/m 20,9 km/h (4 Bft)
02.05.2011 14:20 13,0 C 51 % 1011,5 hPa 0,0 mm 9,7 km/h (2 Bft) O 90 10 min 5 UV-I 932 W/m 27,4 km/h (4 Bft)
02.05.2011 14:30 13,2 C 52 % 1011,4 hPa 0,0 mm 9,7 km/h (2 Bft) O 90 10 min 5 UV-I 956 W/m 22,5 km/h (4 Bft)
02.05.2011 14:40 13,8 C 50 % 1011,4 hPa 0,0 mm 11,3 km/h (2 Bft) O 90 10 min 5 UV-I 1027 W/m 25,7 km/h (4 Bft)
02.05.2011 14:50 13,1 C 52 % 1011,2 hPa 0,0 mm 11,3 km/h (2 Bft) O 90 10 min 5 UV-I 939 W/m 25,7 km/h (4 Bft)
02.05.2011 15:00 13,8 C 51 % 1011,3 hPa 0,0 mm 9,7 km/h (2 Bft) O 90 10 min 5 UV-I 1042 W/m 19,3 km/h (3 Bft)
02.05.2011 15:10 13,6 C 51 % 1011,3 hPa 0,0 mm 11,3 km/h (2 Bft) O 90 10 min 5 UV-I 1042 W/m 35,4 km/h (5 Bft)
02.05.2011 15:20 13,5 C 51 % 1011,3 hPa 0,0 mm 11,3 km/h (2 Bft) O 90 10 min 5 UV-I 995 W/m 29,0 km/h (5 Bft)
02.05.2011 15:30 13,8 C 51 % 1011,4 hPa 0,0 mm 11,3 km/h (2 Bft) O 90 10 min 4 UV-I 991 W/m 27,4 km/h (4 Bft)
02.05.2011 15:40 13,2 C 53 % 1011,4 hPa 0,0 mm 9,7 km/h (2 Bft) O-NO 67 10 min 4 UV-I 951 W/m 24,1 km/h (4 Bft)
02.05.2011 15:50 12,8 C 53 % 1011,3 hPa 0,0 mm 9,7 km/h (2 Bft) O 90 10 min 4 UV-I 904 W/m 25,7 km/h (4 Bft)
02.05.2011 16:00 13,1 C 51 % 1011,3 hPa 0,0 mm 9,7 km/h (2 Bft) O 90 10 min 4 UV-I 932 W/m 29,0 km/h (5 Bft)
02.05.2011 16:10 12,6 C 53 % 1011,2 hPa 0,0 mm 6,4 km/h (2 Bft) O 90 10 min 3 UV-I 833 W/m 20,9 km/h (4 Bft)
02.05.2011 16:20 12,5 C 54 % 1011,2 hPa 0,0 mm 9,7 km/h (2 Bft) O-NO 67 10 min 3 UV-I 721 W/m 25,7 km/h (4 Bft)
02.05.2011 16:30 13,2 C 50 % 1011,1 hPa 0,0 mm 9,7 km/h (2 Bft) O 90 10 min 3 UV-I 773 W/m 27,4 km/h (4 Bft)
02.05.2011 16:40 13,1 C 51 % 1011,2 hPa 0,0 mm 9,7 km/h (2 Bft) O-NO 67 10 min 3 UV-I 744 W/m 27,4 km/h (4 Bft)
02.05.2011 16:50 12,9 C 50 % 1011,1 hPa 0,0 mm 9,7 km/h (2 Bft) O 90 10 min 3 UV-I 788 W/m 22,5 km/h (4 Bft)
02.05.2011 17:00 12,9 C 53 % 1011,2 hPa 0,0 mm 6,4 km/h (2 Bft) O-NO 67 0 min 2 UV-I 209 W/m 20,9 km/h (4 Bft)
02.05.2011 17:10 12,4 C 51 % 1011,1 hPa 0,0 mm 6,4 km/h (2 Bft) O-NO 67 10 min 2 UV-I 608 W/m 20,9 km/h (4 Bft)
02.05.2011 17:20 12,9 C 51 % 1011,0 hPa 0,0 mm 8,0 km/h (2 Bft) O-NO 67 10 min 2 UV-I 594 W/m 22,5 km/h (4 Bft)
02.05.2011 17:30 13,1 C 50 % 1011,0 hPa 0,0 mm 4,8 km/h (1 Bft) O 90 10 min 2 UV-I 601 W/m 19,3 km/h (3 Bft)
02.05.2011 17:40 12,9 C 51 % 1010,9 hPa 0,0 mm 6,4 km/h (2 Bft) O 90 10 min 2 UV-I 568 W/m 19,3 km/h (3 Bft)
02.05.2011 17:50 12,9 C 51 % 1011,0 hPa 0,0 mm 6,4 km/h (2 Bft) O-NO 67 10 min 2 UV-I 557 W/m 19,3 km/h (3 Bft)
02.05.2011 18:00 12,4 C 52 % 1011,2 hPa 0,0 mm 8,0 km/h (2 Bft) O-NO 67 10 min 1 UV-I 524 W/m 22,5 km/h (4 Bft)
02.05.2011 18:10 12,6 C 53 % 1011,1 hPa 0,0 mm 6,4 km/h (2 Bft) O-NO 67 10 min 1 UV-I 508 W/m 19,3 km/h (3 Bft)
02.05.2011 18:20 12,6 C 52 % 1010,9 hPa 0,0 mm 6,4 km/h (2 Bft) O-NO 67 10 min 1 UV-I 438 W/m 20,9 km/h (4 Bft)
02.05.2011 18:30 12,3 C 52 % 1010,9 hPa 0,0 mm 4,8 km/h (1 Bft) O 90 10 min 1 UV-I 425 W/m 17,7 km/h (3 Bft)
02.05.2011 18:40 12,1 C 54 % 1010,8 hPa 0,0 mm 4,8 km/h (1 Bft) O-NO 67 10 min 1 UV-I 355 W/m 14,5 km/h (3 Bft)
02.05.2011 18:50 11,9 C 53 % 1010,8 hPa 0,0 mm 6,4 km/h (2 Bft) NO 45 10 min 1 UV-I 315 W/m 17,7 km/h (3 Bft)
02.05.2011 19:00 11,8 C 53 % 1010,8 hPa 0,0 mm 6,4 km/h (2 Bft) O-NO 67 10 min 1 UV-I 294 W/m 19,3 km/h (3 Bft)
02.05.2011 19:10 11,6 C 53 % 1011,1 hPa 0,0 mm 8,0 km/h (2 Bft) O-NO 67 10 min 1 UV-I 264 W/m 19,3 km/h (3 Bft)
02.05.2011 19:20 11,1 C 55 % 1011,2 hPa 0,0 mm 8,0 km/h (2 Bft) O-NO 67 10 min 1 UV-I 214 W/m 20,9 km/h (4 Bft)
02.05.2011 19:30 10,7 C 57 % 1011,2 hPa 0,0 mm 8,0 km/h (2 Bft) O-NO 67 10 min 1 UV-I 171 W/m 19,3 km/h (3 Bft)
02.05.2011 19:40 10,2 C 59 % 1011,2 hPa 0,0 mm 6,4 km/h (2 Bft) O-NO 67 10 min 0 UV-I 146 W/m 19,3 km/h (3 Bft)
02.05.2011 19:50 9,8 C 60 % 1011,1 hPa 0,0 mm 6,4 km/h (2 Bft) O-NO 67 0 min 0 UV-I 42 W/m 20,9 km/h (4 Bft)
02.05.2011 20:00 9,4 C 61 % 1011,2 hPa 0,0 mm 6,4 km/h (2 Bft) O-NO 67 0 min 0 UV-I 35 W/m 17,7 km/h (3 Bft)
02.05.2011 20:10 9,2 C 61 % 1011,2 hPa 0,0 mm 4,8 km/h (1 Bft) O-NO 67 0 min 0 UV-I 28 W/m 17,7 km/h (3 Bft)
02.05.2011 20:20 8,9 C 63 % 1011,3 hPa 0,0 mm 4,8 km/h (1 Bft) O 90 0 min 0 UV-I 23 W/m 17,7 km/h (3 Bft)
02.05.2011 20:30 8,7 C 64 % 1011,2 hPa 0,0 mm 4,8 km/h (1 Bft) O 90 0 min 0 UV-I 18 W/m 11,3 km/h (2 Bft)
02.05.2011 20:40 8,5 C 64 % 1011,3 hPa 0,0 mm 3,2 km/h (1 Bft) O-NO 67 0 min 0 UV-I 12 W/m 11,3 km/h (2 Bft)
02.05.2011 20:50 8,2 C 66 % 1011,5 hPa 0,0 mm 1,6 km/h (1 Bft) O-NO 67 0 min 0 UV-I 0 W/m 8,0 km/h (2 Bft)
02.05.2011 21:00 8,0 C 67 % 1011,6 hPa 0,0 mm 1,6 km/h (1 Bft) O-NO 67 0 min 0 UV-I 0 W/m 9,7 km/h (2 Bft)
02.05.2011 21:10 7,8 C 68 % 1011,6 hPa 0,0 mm 1,6 km/h (1 Bft) NO 45 0 min 0 UV-I 0 W/m 8,0 km/h (2 Bft)
02.05.2011 21:20 7,6 C 70 % 1011,8 hPa 0,0 mm 0,0 km/h (0 Bft) N 360 0 min 0 UV-I 0 W/m 8,0 km/h (2 Bft)
02.05.2011 21:30 7,3 C 70 % 1011,8 hPa 0,0 mm 0,0 km/h (0 Bft) NO 45 0 min 0 UV-I 0 W/m 4,8 km/h (1 Bft)
02.05.2011 21:40 7,2 C 71 % 1011,9 hPa 0,0 mm 1,6 km/h (1 Bft) O-NO 67 0 min 0 UV-I 0 W/m 12,9 km/h (3 Bft)
02.05.2011 21:50 7,2 C 71 % 1011,9 hPa 0,0 mm 3,2 km/h (1 Bft) N-NO 22 0 min 0 UV-I 0 W/m 16,1 km/h (3 Bft)
02.05.2011 22:00 7,2 C 71 % 1012,0 hPa 0,0 mm 4,8 km/h (1 Bft) O-NO 67 0 min 0 UV-I 0 W/m 17,7 km/h (3 Bft)
02.05.2011 22:10 7,2 C 71 % 1012,0 hPa 0,0 mm 6,4 km/h (2 Bft) O-NO 67 0 min 0 UV-I 0 W/m 19,3 km/h (3 Bft)
02.05.2011 22:20 7,2 C 71 % 1012,0 hPa 0,0 mm 6,4 km/h (2 Bft) O-NO 67 0 min 0 UV-I 0 W/m 16,1 km/h (3 Bft)
02.05.2011 22:30 7,1 C 72 % 1011,9 hPa 0,0 mm 6,4 km/h (2 Bft) O 90 0 min 0 UV-I 0 W/m 17,7 km/h (3 Bft)
02.05.2011 22:40 7,0 C 72 % 1011,9 hPa 0,0 mm 6,4 km/h (2 Bft) O-NO 67 0 min 0 UV-I 0 W/m 20,9 km/h (4 Bft)
02.05.2011 22:50 6,8 C 73 % 1012,1 hPa 0,0 mm 6,4 km/h (2 Bft) O-NO 67 0 min 0 UV-I 0 W/m 19,3 km/h (3 Bft)
02.05.2011 23:00 6,8 C 74 % 1012,1 hPa 0,0 mm 3,2 km/h (1 Bft) O 90 0 min 0 UV-I 0 W/m 11,3 km/h (2 Bft)
02.05.2011 23:10 6,6 C 74 % 1012,1 hPa 0,0 mm 3,2 km/h (1 Bft) NO 45 0 min 0 UV-I 0 W/m 11,3 km/h (2 Bft)
02.05.2011 23:20 6,4 C 75 % 1012,2 hPa 0,0 mm 3,2 km/h (1 Bft) O-NO 67 0 min 0 UV-I 0 W/m 16,1 km/h (3 Bft)
02.05.2011 23:30 6,3 C 76 % 1012,3 hPa 0,0 mm 1,6 km/h (1 Bft) O 90 0 min 0 UV-I 0 W/m 11,3 km/h (2 Bft)
02.05.2011 23:40 6,3 C 76 % 1012,3 hPa 0,0 mm 3,2 km/h (1 Bft) O-NO 67 0 min 0 UV-I 0 W/m 11,3 km/h (2 Bft)
02.05.2011 23:50 6,2 C 76 % 1012,2 hPa 0,0 mm 4,8 km/h (1 Bft) O-NO 67 0 min 0 UV-I 0 W/m 11,3 km/h (2 Bft)
_ Min-Zeit 06:40 14:10 18:40 - 00:00 - - - - - 01:10
Minimum _ 5,9 C 50 % 1010,8 hPa - 0,0 km/h (0 Bft) - - - - - 0,0 km/h (0 Bft)
_ Max-Zeit 14:40 06:40 00:00 00:00 13:00 - - 07:30 12:40 15:00 15:10
Maximum _ 14,2 C 76 % 1012,4 hPa 0,0 mm 11,3 km/h
O (2 Bft)
- - 10 min 6 UV-I 1042 W/m 35,4 km/h
N-NW (5 Bft)
Durchschnitt _ 9,3 C 63 % 1011,7 hPa #0,0 mm 4,4 km/h (1 Bft) O-NO - #11:20 h 3 UV-I 543 W/m 14,2 km/h (3 Bft)